Aérodrome :
LOGIN :

S'inscrire | Disclaimer

   EN    FR    IT 

 










Légende :    VFR   VFR Marginal   IFR   IFR Intensif   IFR Très Intensif
Visi : 
Plafond : 
>= 8 km
>= 3000ft
5 à 8 km
1000 à 3000 ft
1500m à 5 km
500 à 1000 ft
800 à 1500m
200 à 500 ft
< 800m
< 200 ft
Symboles :   Orages  Brouillard  Fortes neiges  Fortes précipitations  Vent > 20 kt
SIGMETs :   Divers  Orages  Givrage  Turbulence  Onde Orograph.  Cendres Volcan.






- Altitude de l'aérodrome : 755 ft
- Code IATA : DRS


EDDC - Dresden Klotzsche

DERNIER METAR :
  • 171320Z 25004KT 180V340 9999 SCT046 18/09 Q1014 NOSIG

METARs EXPIRÉS :
  • 171250Z 23007KT 190V310 9999 FEW043 18/08 Q1014 NOSIG
  • 171220Z 24008KT 210V270 9999 -RA NSC 18/07 Q1014 NOSIG
  • 171150Z 23008KT 200V260 CAVOK 18/08 Q1014 NOSIG
  • 171120Z 22008KT 190V250 9999 FEW044 19/08 Q1014 NOSIG
  • 171050Z 19008KT CAVOK 17/09 Q1015 NOSIG

TAF TAF EDDC
Valide du 17 à 12h jusqu'au 18 à 12h UTC


171100Z 1712/1812 18010KT CAVOK
BECMG 1714/1717 17005KT



MET'MAP, la Météo Aéronautique d'un coup d'oeil ! - Copyright ORBIFLY Décembre 2007 - Disclaimer

ORBIFLY MET'MAP TEAM :

Programmation & Développement : Alexandra Zaïnal
Conception & Développement : Baudouin d'Aumeries
Co-Programmation & Développement : Marc-Olivier Méhu
Soutien technique & logistique : Manuel Goepfert

Contact : metmap@orbifly.com




SOURCES & CREDITS :

   NOAA